Houma, LA

1:05 AM CDT on September 05, 2015 (GMT -0500)
Ellendale Farms | | Change Station
CLOSE
Current Station
Personal Weather Station
Location: Houma, LA
Elevation: 26 ft
Nearby Weather Stations

Elev 26 ft 29.63 °N, 90.81 °W | Updated 1 second ago

Fog
Fog
76.1 °F
Feels Like 75 °F
N
0.0
Wind Variable Wind from South
Gusts 0.0 mph

Today
High -- | Low -- °F
--% Chance of Precip.
Yesterday
High -- | Low -- °F
Precip. -- in
6:42 AM 7:20 PM
Waning Gibbous, 52% visible
Pressure 29.98 in
Visibility 0.8 miles
Clouds
Heat Index 75 °F
Dew Point 75 °F
Humidity 99%
Rainfall 0.00 in
Snow Depth Not available.
UV Not available.
Pollen 7.50 out of 12
Air Quality Not available.
Flu Activity Not available.
METAR KHUM 050555Z AUTO 00000KT 3/4SM BR VV005 24/24 A2998 RMK AO2 T02430243 10274 20237
Pressure 29.98 in
Visibility 0.8 miles
Clouds
Heat Index 75 °F
Dew Point 75 °F
Humidity 99%
Rainfall 0.00 in
Snow Depth Not available.
UV Not available.
Pollen 7.50 out of 12
Air Quality Not available.
Flu Activity Not available.
METAR KHUM 050555Z AUTO 00000KT 3/4SM BR VV005 24/24 A2998 RMK AO2 T02430243 10274 20237

10-Day Weather Forecast

×

Almanac

Astronomy

Sep. 05, 2015 Rise Set
Actual Time
Civil Twilight
Nautical Twilight
Astronomical Twilight
Moon
Length of Visible Light
Length of Day
Tomorrow will be .
, % of the Moon is Illuminated

Today's Extremes

State Highs State Lows

Community

WunderPhotos

Upload Photos

1,852,431 photos uploaded!

WunderBlogs® & News

Nearby

Air Quality

  Air Quality AQ Index Pollutant
Not available.

Snow Depth

Station Depth Elevation

Earthquake Activity

City Distance Mag. Time & Date
Minimum magnitude displayed is 2.5.

Coastal Water Temperatures

Place Temperature

Stations

Nearby Weather Stations

Station Location Temp. Windchill Dew Point Humidity Wind Precip. Elev Updated Type